Beloit, Kansas
Current Conditions -  °F | °C
As of 10:55 AM on Friday 28 Nov 2014 (Local Time) from KCNK Reporting Station
Clear Clear  
Wind Chill: 10°   Ceiling: Unl
Heat Index: 10°   Visibility: 10mi
Dew Point: -1°   Wind: 10mph
Humidity: 46%   Direction: 230°SW
Pressure: 29.86"   Gusts: NA
Location:  39.46°N, 98.11°W
Report Text: KCNK 281655Z AUTO 23009KT 10SM CLR 10/M01 A2986 RMK AO2 SLP116 T01001011
Loading
Personal Weather Stations






























Interactive Weather Map New forecast layout! Learn more

10-Day Weather Forecast

Advertisements
Track Severe Weather on mobile